M.y. Libra Star — 3ALV — position and weather

sailwx.info

Track history (hours):
 
Tides and Currents Weather Stations Pressure Air Temp Water Temp Dewpoint Dewpoint Depression Visibility Wind Speed Wind Dir Waves Ship Positions

M.y. Libra Star

Last reported at 2015-Oct-11 15:27 UTC. Time now 2016-Feb-10 12:52 UTC.
Position N 43°44' E 007°26'.
Warning: this ship's position is months out of date.

Length 40 m; draft 3 m.

Type: Pleasure craft. MMSI: 254450000.

Date/timePositionNaut miles runAvg speedWind from/ knotsBaromVisibWave heightAir tempDewpointWater temp
2015-Oct-11 15:27N 43°44' E 007°26'5 2.5
2015-Oct-11 13:20N 43°42' E 007°19'0 0.0
2015-Oct-11 12:32N 43°42' E 007°19'0 0.0
2015-Oct-11 11:26N 43°42' E 007°19'0 0.0
2015-Oct-11 09:20N 43°42' E 007°19'0 0.0
2015-Oct-11 08:32N 43°42' E 007°19'0 0.0
2015-Oct-11 06:26N 43°42' E 007°19'0 0.0
2015-Oct-11 05:32N 43°42' E 007°19'0 0.0
2015-Oct-11 04:20N 43°42' E 007°19'0 0.0
2015-Oct-11 03:26N 43°42' E 007°19'0 0.0
2015-Oct-11 02:14N 43°42' E 007°19'0 0.0
2015-Oct-11 01:26N 43°42' E 007°19'0 0.0
2015-Oct-11 00:32N 43°42' E 007°19'0 0.0
2015-Oct-10 23:32N 43°42' E 007°19'0 0.0
2015-Oct-10 22:26N 43°42' E 007°19'0 0.0
2015-Oct-10 20:32N 43°42' E 007°19'0 0.0
2015-Oct-10 19:32N 43°42' E 007°19'0 0.0
2015-Oct-10 18:20N 43°42' E 007°19'0 0.0
2015-Oct-10 16:32N 43°42' E 007°19'0 0.0
2015-Oct-10 15:14N 43°42' E 007°19'1 2.0
2015-Oct-10 14:33N 43°40' E 007°19'  
2015-Oct-04 15:32N 43°43' E 007°25'4 3.1
2015-Oct-04 14:20N 43°41' E 007°20'0 0.0
2015-Oct-04 13:32N 43°41' E 007°20'0 0.0
2015-Oct-04 12:32N 43°41' E 007°20'0 0.0
2015-Oct-04 11:32N 43°41' E 007°20'0 0.0
2015-Oct-04 10:32N 43°41' E 007°20'0 0.3
2015-Oct-04 09:33N 43°42' E 007°21'  
Track history (hours):
 
Tides and Currents Weather Stations Pressure Air Temp Water Temp Dewpoint Dewpoint Depression Visibility Wind Speed Wind Dir Waves Ship Positions

M.y. Libra Star

Last reported at 2015-Oct-11 15:27 UTC. Time now 2016-Feb-10 12:52 UTC.
Position N 43°44' E 007°26'.
Warning: this ship's position is months out of date.

Length 40 m; draft 3 m.

Type: Pleasure craft. MMSI: 254450000.

Date/timePositionNaut miles runAvg speedWind from/ knotsBaromVisibWave heightAir tempDewpointWater temp
2015-Oct-11 15:27N 43°44' E 007°26'5 2.5
2015-Oct-11 13:20N 43°42' E 007°19'0 0.0
2015-Oct-11 12:32N 43°42' E 007°19'0 0.0
2015-Oct-11 11:26N 43°42' E 007°19'0 0.0
2015-Oct-11 09:20N 43°42' E 007°19'0 0.0
2015-Oct-11 08:32N 43°42' E 007°19'0 0.0
2015-Oct-11 06:26N 43°42' E 007°19'0 0.0
2015-Oct-11 05:32N 43°42' E 007°19'0 0.0
2015-Oct-11 04:20N 43°42' E 007°19'0 0.0
2015-Oct-11 03:26N 43°42' E 007°19'0 0.0
2015-Oct-11 02:14N 43°42' E 007°19'0 0.0
2015-Oct-11 01:26N 43°42' E 007°19'0 0.0
2015-Oct-11 00:32N 43°42' E 007°19'0 0.0
2015-Oct-10 23:32N 43°42' E 007°19'0 0.0
2015-Oct-10 22:26N 43°42' E 007°19'0 0.0
2015-Oct-10 20:32N 43°42' E 007°19'0 0.0
2015-Oct-10 19:32N 43°42' E 007°19'0 0.0
2015-Oct-10 18:20N 43°42' E 007°19'0 0.0
2015-Oct-10 16:32N 43°42' E 007°19'0 0.0
2015-Oct-10 15:14N 43°42' E 007°19'1 2.0
2015-Oct-10 14:33N 43°40' E 007°19'  
2015-Oct-04 15:32N 43°43' E 007°25'4 3.1
2015-Oct-04 14:20N 43°41' E 007°20'0 0.0
2015-Oct-04 13:32N 43°41' E 007°20'0 0.0
2015-Oct-04 12:32N 43°41' E 007°20'0 0.0
2015-Oct-04 11:32N 43°41' E 007°20'0 0.0
2015-Oct-04 10:32N 43°41' E 007°20'0 0.3
2015-Oct-04 09:33N 43°42' E 007°21'  

Dump ship's entire track history